createdAt,value
2022-10-04T00:01:43.994Z,100486.22
2022-10-04T00:04:52.843Z,100482.75
2022-10-04T00:08:00.470Z,100470.16
2022-10-04T00:11:13.439Z,100470.25
2022-10-04T00:14:36.947Z,100476.63
2022-10-04T00:17:38.428Z,100475.47
2022-10-04T00:20:53.164Z,100481.22
2022-10-04T00:24:10.514Z,100480.59
2022-10-04T00:27:24.336Z,100475.25
2022-10-04T00:30:25.881Z,100471.22
2022-10-04T00:33:53.879Z,100465.22
2022-10-04T00:36:56.508Z,100471.91
2022-10-04T00:40:09.933Z,100462.22
2022-10-04T00:43:22.008Z,100467.63
2022-10-04T00:46:27.792Z,100458.69
2022-10-04T00:49:36.674Z,100462.34
2022-10-04T00:52:46.721Z,100470.13
2022-10-04T00:55:57.030Z,100456.34
2022-10-04T00:59:12.226Z,100454.63
2022-10-04T01:02:40.536Z,100450.16
2022-10-04T01:05:50.868Z,100457.56
2022-10-04T01:09:01.645Z,100449.41
2022-10-04T01:12:10.711Z,100445.00
2022-10-04T01:15:25.405Z,100449.13
2022-10-04T01:18:35.527Z,100454.63
2022-10-04T01:21:38.676Z,100442.50
2022-10-04T01:24:42.624Z,100445.78
2022-10-04T01:27:44.430Z,100450.50
2022-10-04T01:30:46.211Z,100447.72
2022-10-04T01:33:48.507Z,100442.59
2022-10-04T01:36:52.758Z,100436.75
2022-10-04T01:39:54.338Z,100427.78
2022-10-04T01:43:01.340Z,100425.00
2022-10-04T01:46:09.727Z,100417.94
2022-10-04T01:49:17.073Z,100423.38
2022-10-04T01:52:27.001Z,100431.28
2022-10-04T01:55:41.235Z,100425.97
2022-10-04T01:58:45.402Z,100431.59
2022-10-04T02:02:04.112Z,100422.28
2022-10-04T02:05:10.236Z,100414.56
2022-10-04T02:08:16.289Z,100404.50
2022-10-04T02:11:21.329Z,100418.97
2022-10-04T02:14:28.524Z,100413.09
2022-10-04T02:17:33.545Z,100412.28
2022-10-04T02:20:35.150Z,100417.09
2022-10-04T02:23:38.913Z,100402.56
2022-10-04T02:26:40.583Z,100408.59
2022-10-04T02:29:42.348Z,100411.41
2022-10-04T02:33:00.361Z,100407.47
2022-10-04T02:36:02.320Z,100404.56
2022-10-04T02:39:15.393Z,100398.50
2022-10-04T02:42:16.821Z,100400.63
2022-10-04T02:45:29.113Z,100393.00
2022-10-04T02:48:39.293Z,100383.72
2022-10-04T02:51:46.878Z,100396.41
2022-10-04T02:55:03.406Z,100404.94
2022-10-04T02:58:10.750Z,100398.50
2022-10-04T03:01:17.694Z,100403.47
2022-10-04T03:04:23.316Z,100394.59
2022-10-04T03:07:26.347Z,100389.34
2022-10-04T03:10:27.861Z,100395.41
2022-10-04T03:13:30.888Z,100385.47
2022-10-04T03:16:39.094Z,100386.47
2022-10-04T03:19:41.000Z,100388.28
2022-10-04T03:22:47.025Z,100381.25
2022-10-04T03:26:19.188Z,100380.94
2022-10-04T03:29:23.788Z,100388.09
2022-10-04T03:32:26.254Z,100385.25
2022-10-04T03:35:36.335Z,100380.28
2022-10-04T03:38:37.930Z,100390.09
2022-10-04T03:41:42.100Z,100382.97
2022-10-04T03:44:50.161Z,100385.88
2022-10-04T03:47:53.629Z,100386.78
2022-10-04T03:50:55.623Z,100386.19
2022-10-04T03:54:02.337Z,100379.06
2022-10-04T03:57:06.009Z,100383.34
2022-10-04T04:00:08.365Z,100387.59
2022-10-04T04:03:20.346Z,100385.56
2022-10-04T04:06:23.505Z,100391.75
2022-10-04T04:09:48.138Z,100396.88
2022-10-04T04:12:57.203Z,100398.06
2022-10-04T04:16:02.723Z,100397.22
2022-10-04T04:19:12.723Z,100392.97
2022-10-04T04:22:18.291Z,100386.59
2022-10-04T04:25:23.520Z,100386.25
2022-10-04T04:28:34.269Z,100380.53
2022-10-04T04:31:42.056Z,100385.13
2022-10-04T04:34:53.140Z,100379.69
2022-10-04T04:38:17.684Z,100384.06
2022-10-04T04:41:22.078Z,100372.56
2022-10-04T04:44:23.575Z,100372.69
2022-10-04T04:47:33.839Z,100362.34
2022-10-04T04:50:37.927Z,100370.19
2022-10-04T04:53:42.961Z,100373.66
2022-10-04T04:56:48.638Z,100366.97
2022-10-04T04:59:55.593Z,100367.00
2022-10-04T05:03:00.237Z,100371.28
2022-10-04T05:06:04.765Z,100366.06
2022-10-04T05:09:20.635Z,100370.59
2022-10-04T05:12:24.060Z,100370.38
2022-10-04T05:15:28.001Z,100372.03
2022-10-04T05:18:33.579Z,100383.19
2022-10-04T05:21:39.613Z,100389.56
2022-10-04T05:24:46.151Z,100390.88
2022-10-04T05:27:49.723Z,100395.69
2022-10-04T05:31:09.588Z,100392.28
2022-10-04T05:34:24.588Z,100389.41
2022-10-04T05:37:42.689Z,100398.91
2022-10-04T05:40:52.313Z,100399.00
2022-10-04T05:43:54.200Z,100398.06
2022-10-04T05:47:00.881Z,100398.88
2022-10-04T05:50:03.565Z,100411.34
2022-10-04T05:53:33.987Z,100411.75
2022-10-04T05:57:01.817Z,100422.50
2022-10-04T06:00:20.692Z,100428.69
2022-10-04T06:04:10.520Z,100430.84
2022-10-04T06:07:49.650Z,100438.41
2022-10-04T06:11:05.255Z,100451.22
2022-10-04T06:14:26.097Z,100457.50
2022-10-04T06:17:51.742Z,100456.78
2022-10-04T06:21:08.513Z,100459.28
2022-10-04T06:24:17.755Z,100460.44
2022-10-04T06:27:41.544Z,100460.00
2022-10-04T06:31:21.953Z,100438.69
2022-10-04T06:34:35.752Z,100429.06
2022-10-04T06:37:50.752Z,100435.84
2022-10-04T06:40:55.070Z,100444.75
2022-10-04T06:44:19.253Z,100426.19
2022-10-04T06:47:51.660Z,100433.97
2022-10-04T06:51:02.353Z,100431.75
2022-10-04T06:54:38.814Z,100449.44
2022-10-04T06:58:08.331Z,100447.31
2022-10-04T07:01:32.207Z,100454.53
2022-10-04T07:05:06.445Z,100452.16
2022-10-04T07:08:38.469Z,100459.97
2022-10-04T07:11:58.257Z,100454.31
2022-10-04T07:15:03.169Z,100457.75
2022-10-04T07:18:11.809Z,100463.78
2022-10-04T07:21:16.709Z,100472.13
2022-10-04T07:24:32.628Z,100470.09
2022-10-04T07:28:17.054Z,100467.66
2022-10-04T07:31:27.960Z,100471.00
2022-10-04T07:34:32.732Z,100472.91
2022-10-04T07:37:44.973Z,100467.75
2022-10-04T07:40:58.579Z,100472.03
2022-10-04T07:44:18.280Z,100462.00
2022-10-04T07:47:22.042Z,100463.22
2022-10-04T07:50:34.555Z,100461.63
2022-10-04T07:53:43.322Z,100454.66
2022-10-04T07:57:01.201Z,100444.03
2022-10-04T08:00:11.588Z,100439.66
2022-10-04T08:03:32.255Z,100450.47
2022-10-04T08:06:39.477Z,100444.28
2022-10-04T08:09:53.087Z,100442.44
2022-10-04T08:13:12.026Z,100441.13
2022-10-04T08:16:35.025Z,100444.31
2022-10-04T08:20:12.023Z,100440.75
2022-10-04T08:23:51.091Z,100441.44
2022-10-04T08:27:10.616Z,100438.66
2022-10-04T08:30:17.156Z,100437.53
2022-10-04T08:33:42.122Z,100435.81
2022-10-04T08:37:15.648Z,100436.03
2022-10-04T08:40:45.562Z,100430.72
2022-10-04T08:44:01.387Z,100426.91
2022-10-04T08:47:22.249Z,100430.47
2022-10-04T08:50:48.465Z,100431.91
2022-10-04T08:54:23.305Z,100434.09
2022-10-04T08:57:52.827Z,100430.22
2022-10-04T09:01:19.581Z,100433.28
2022-10-04T09:04:29.766Z,100441.03
2022-10-04T09:08:06.414Z,100438.53
2022-10-04T09:11:29.941Z,100432.16
2022-10-04T09:14:38.705Z,100425.03
2022-10-04T09:17:55.699Z,100427.63
2022-10-04T09:21:08.304Z,100432.09
2022-10-04T09:24:38.867Z,100430.25
2022-10-04T09:28:17.858Z,100434.44
2022-10-04T09:31:52.529Z,100435.19
2022-10-04T09:35:11.699Z,100427.50
2022-10-04T09:38:29.817Z,100421.94
2022-10-04T09:41:51.162Z,100423.38
2022-10-04T09:45:21.835Z,100426.88
2022-10-04T09:48:32.757Z,100432.91
2022-10-04T09:52:14.235Z,100436.16
2022-10-04T09:55:53.543Z,100440.34
2022-10-04T09:59:22.722Z,100432.53
2022-10-04T10:02:45.120Z,100432.72
2022-10-04T10:06:05.093Z,100432.19
2022-10-04T10:10:00.848Z,100427.22
2022-10-04T10:13:45.180Z,100427.88
2022-10-04T10:17:26.952Z,100425.25
2022-10-04T10:20:57.463Z,100427.59
2022-10-04T10:24:17.380Z,100432.50
2022-10-04T10:27:40.887Z,100424.34
2022-10-04T10:31:24.503Z,100429.44
2022-10-04T10:34:35.030Z,100423.31
2022-10-04T10:37:52.748Z,100420.25
2022-10-04T10:40:54.101Z,100407.13
2022-10-04T10:44:08.968Z,100412.41
2022-10-04T10:47:26.226Z,100405.78
2022-10-04T10:50:58.375Z,100401.97
2022-10-04T10:54:30.250Z,100402.56
2022-10-04T10:58:02.271Z,100392.69
2022-10-04T11:01:22.636Z,100392.69
2022-10-04T11:04:54.192Z,100380.34
2022-10-04T11:08:01.884Z,100372.19
2022-10-04T11:11:34.826Z,100376.53
2022-10-04T11:15:01.331Z,100374.03
2022-10-04T11:18:46.826Z,100364.38
2022-10-04T11:22:07.473Z,100370.34
2022-10-04T11:25:42.912Z,100358.06
2022-10-04T11:29:12.697Z,100353.94
2022-10-04T11:32:19.214Z,100354.81
2022-10-04T11:35:41.587Z,100356.97
2022-10-04T11:39:01.212Z,100356.41
2022-10-04T11:42:08.108Z,100347.94
2022-10-04T11:45:34.043Z,100360.72
2022-10-04T11:48:41.718Z,100361.38
2022-10-04T11:51:49.335Z,100358.47
2022-10-04T11:55:35.251Z,100367.53
2022-10-04T11:59:00.827Z,100363.69
2022-10-04T12:02:49.184Z,100358.47
2022-10-04T12:05:53.358Z,100351.84
2022-10-04T12:09:17.291Z,100354.81
2022-10-04T12:12:48.415Z,100347.75
2022-10-04T12:16:15.498Z,100347.03
2022-10-04T12:19:29.165Z,100353.19
2022-10-04T12:22:39.528Z,100348.63
2022-10-04T12:25:46.828Z,100337.78
2022-10-04T12:29:04.118Z,100330.03
2022-10-04T12:32:35.553Z,100338.59
2022-10-04T12:35:47.889Z,100334.72
2022-10-04T12:39:13.260Z,100334.09
2022-10-04T12:42:22.965Z,100331.91
2022-10-04T12:45:56.819Z,100328.16
2022-10-04T12:49:27.352Z,100318.69
2022-10-04T12:52:40.173Z,100323.41
2022-10-04T12:55:52.852Z,100322.38
2022-10-04T12:59:15.331Z,100318.47
2022-10-04T13:02:44.625Z,100327.72
2022-10-04T13:05:46.014Z,100324.19
2022-10-04T13:08:56.447Z,100330.22
2022-10-04T13:12:09.821Z,100325.03
2022-10-04T13:19:19.434Z,100317.44
2022-10-04T13:22:51.756Z,100306.69
2022-10-04T13:26:15.456Z,100316.78
2022-10-04T13:29:28.443Z,100313.06
2022-10-04T13:33:03.250Z,100308.13
2022-10-04T13:36:23.013Z,100315.66
2022-10-04T13:39:51.151Z,100309.56
2022-10-04T13:43:12.714Z,100310.53
2022-10-04T13:46:28.407Z,100300.84
2022-10-04T13:49:51.204Z,100309.72
2022-10-04T13:53:23.176Z,100301.09
2022-10-04T13:56:43.992Z,100289.22
2022-10-04T14:00:02.157Z,100289.34
2022-10-04T14:03:44.427Z,100294.97
2022-10-04T14:07:18.538Z,100294.00
2022-10-04T14:10:47.837Z,100277.78
2022-10-04T14:14:10.060Z,100277.06
2022-10-04T14:17:48.155Z,100276.41
2022-10-04T14:20:59.761Z,100268.66
2022-10-04T14:24:33.274Z,100262.72
2022-10-04T14:28:03.934Z,100258.13
2022-10-04T14:31:47.160Z,100263.06
2022-10-04T14:35:10.499Z,100245.59
2022-10-04T14:38:14.874Z,100251.72
2022-10-04T14:41:35.080Z,100250.88
2022-10-04T14:44:45.502Z,100250.88
2022-10-04T14:48:08.697Z,100245.41
2022-10-04T14:51:28.987Z,100243.84
2022-10-04T14:54:42.116Z,100240.38
2022-10-04T14:58:16.791Z,100240.88
2022-10-04T15:01:29.337Z,100228.53
2022-10-04T15:04:48.855Z,100236.78
2022-10-04T15:07:57.006Z,100232.69
2022-10-04T15:11:03.548Z,100224.22
2022-10-04T15:14:23.107Z,100224.72
2022-10-04T15:17:27.468Z,100232.72
2022-10-04T15:20:36.256Z,100235.09
2022-10-04T15:23:48.618Z,100229.16
2022-10-04T15:27:11.235Z,100232.28
2022-10-04T15:30:30.974Z,100232.22
2022-10-04T15:34:03.597Z,100220.91
2022-10-04T15:37:25.380Z,100223.44
2022-10-04T15:40:30.662Z,100224.91
2022-10-04T15:43:53.989Z,100216.97
2022-10-04T15:47:07.389Z,100206.00
2022-10-04T15:50:27.559Z,100215.16
2022-10-04T15:53:50.808Z,100209.13
2022-10-04T15:57:00.540Z,100216.13
2022-10-04T16:00:10.016Z,100222.63
2022-10-04T16:03:14.426Z,100222.63
2022-10-04T16:06:34.219Z,100220.25
2022-10-04T16:09:46.489Z,100221.38
2022-10-04T16:12:48.503Z,100218.09
2022-10-04T16:16:32.684Z,100207.22
2022-10-04T16:19:53.170Z,100219.25
2022-10-04T16:23:25.516Z,100218.06
2022-10-04T16:26:27.213Z,100218.19
2022-10-04T16:29:50.909Z,100231.00
2022-10-04T16:33:33.131Z,100232.59
2022-10-04T16:36:58.741Z,100239.72
2022-10-04T16:40:09.379Z,100227.59
2022-10-04T16:43:32.534Z,100232.59
2022-10-04T16:46:46.236Z,100235.84
2022-10-04T16:49:54.830Z,100240.06
2022-10-04T16:52:57.379Z,100245.06
2022-10-04T16:56:11.939Z,100253.31
2022-10-04T16:59:13.509Z,100257.41
2022-10-04T17:03:09.700Z,100252.00
2022-10-04T17:06:15.505Z,100250.31
2022-10-04T17:09:19.388Z,100238.63
2022-10-04T17:12:35.181Z,100243.00
2022-10-04T17:15:59.618Z,100229.78
2022-10-04T17:19:32.660Z,100227.16
2022-10-04T17:22:53.701Z,100219.47
2022-10-04T17:26:16.827Z,100223.16
2022-10-04T17:29:44.940Z,100223.44
2022-10-04T17:33:01.441Z,100236.66
2022-10-04T17:36:33.708Z,100239.31
2022-10-04T17:39:48.048Z,100240.31
2022-10-04T17:43:00.589Z,100233.72
2022-10-04T17:46:30.498Z,100234.09
2022-10-04T17:49:56.749Z,100241.31
2022-10-04T17:53:23.260Z,100250.19
2022-10-04T17:56:49.205Z,100254.31
2022-10-04T17:59:59.489Z,100256.94
2022-10-04T18:03:12.334Z,100257.13
2022-10-04T18:06:27.255Z,100247.75
2022-10-04T18:09:45.443Z,100247.91
2022-10-04T18:12:56.675Z,100255.44
2022-10-04T18:16:18.589Z,100256.78
2022-10-04T18:19:41.438Z,100262.22
2022-10-04T18:22:51.185Z,100260.72
2022-10-04T18:26:02.763Z,100258.91
2022-10-04T18:29:08.840Z,100254.44
2022-10-04T18:32:31.964Z,100260.72
2022-10-04T18:35:34.098Z,100264.16
2022-10-04T18:38:35.441Z,100262.66
2022-10-04T18:41:52.552Z,100259.63
2022-10-04T18:45:01.175Z,100260.16
2022-10-04T18:48:15.236Z,100259.03
2022-10-04T18:51:39.138Z,100260.34
2022-10-04T18:54:49.514Z,100258.88
2022-10-04T18:59:10.990Z,100264.25
2022-10-04T19:02:24.539Z,100256.16
2022-10-04T19:05:39.122Z,100262.16
2022-10-04T19:08:55.424Z,100264.47
2022-10-04T19:12:02.405Z,100269.88
2022-10-04T19:15:24.164Z,100272.72
2022-10-04T19:18:31.630Z,100273.03
2022-10-04T19:21:39.086Z,100269.44
2022-10-04T19:24:55.239Z,100279.25
2022-10-04T19:28:00.537Z,100278.25
2022-10-04T19:31:21.491Z,100274.78
2022-10-04T19:35:07.819Z,100280.84
2022-10-04T19:38:24.193Z,100280.84
2022-10-04T19:41:37.656Z,100278.88
2022-10-04T19:45:08.100Z,100292.53
2022-10-04T19:48:24.583Z,100295.22
2022-10-04T19:51:39.714Z,100307.19
2022-10-04T19:54:41.158Z,100311.03
2022-10-04T19:57:42.814Z,100312.44
2022-10-04T20:00:44.323Z,100311.94
2022-10-04T20:03:45.849Z,100310.16
2022-10-04T20:06:50.136Z,100312.13
2022-10-04T20:10:08.068Z,100321.00
2022-10-04T20:13:21.710Z,100322.56
2022-10-04T20:16:54.129Z,100319.88
2022-10-04T20:19:55.665Z,100321.47
2022-10-04T20:22:57.170Z,100319.50
2022-10-04T20:25:59.241Z,100329.25
2022-10-04T20:29:00.674Z,100330.13
2022-10-04T20:32:04.137Z,100325.13
2022-10-04T20:35:32.674Z,100327.72
2022-10-04T20:38:59.845Z,100325.75
2022-10-04T20:42:20.104Z,100326.09
2022-10-04T20:45:22.803Z,100337.50
2022-10-04T20:48:26.620Z,100332.22
2022-10-04T20:51:32.816Z,100339.38
2022-10-04T20:54:35.286Z,100336.88
2022-10-04T20:57:40.584Z,100340.97
2022-10-04T21:00:54.724Z,100344.84
2022-10-04T21:04:12.232Z,100341.22
2022-10-04T21:07:24.286Z,100350.19
2022-10-04T21:10:28.542Z,100358.25
2022-10-04T21:13:48.606Z,100359.19
2022-10-04T21:16:52.530Z,100353.81
2022-10-04T21:19:54.711Z,100351.94
2022-10-04T21:23:30.196Z,100357.19
2022-10-04T21:26:34.856Z,100365.06
2022-10-04T21:29:39.910Z,100365.75
2022-10-04T21:32:41.472Z,100372.81
2022-10-04T21:35:42.897Z,100370.03
2022-10-04T21:38:44.545Z,100367.13
2022-10-04T21:41:45.995Z,100364.56
2022-10-04T21:44:47.656Z,100362.22
2022-10-04T21:47:49.080Z,100369.69
2022-10-04T21:50:52.403Z,100368.84
2022-10-04T21:53:53.882Z,100356.09
2022-10-04T21:56:55.584Z,100352.78
2022-10-04T21:59:57.021Z,100359.00
2022-10-04T22:02:58.552Z,100359.31
2022-10-04T22:06:02.850Z,100356.00
2022-10-04T22:09:05.529Z,100345.78
2022-10-04T22:12:06.929Z,100354.34
2022-10-04T22:15:09.149Z,100348.28
2022-10-04T22:18:10.670Z,100346.84
2022-10-04T22:21:12.045Z,100354.13
2022-10-04T22:24:19.642Z,100358.63
2022-10-04T22:27:21.390Z,100357.78
2022-10-04T22:30:29.042Z,100358.09
2022-10-04T22:33:36.622Z,100349.94
2022-10-04T22:36:39.616Z,100343.69
2022-10-04T22:39:41.095Z,100341.63
2022-10-04T22:42:43.073Z,100344.50
2022-10-04T22:45:44.746Z,100340.84
2022-10-04T22:48:48.559Z,100337.00
2022-10-04T22:51:52.379Z,100338.97
2022-10-04T22:54:57.829Z,100338.13
2022-10-04T22:57:59.378Z,100328.06
2022-10-04T23:01:01.184Z,100328.19
2022-10-04T23:04:04.253Z,100324.25
2022-10-04T23:07:05.680Z,100326.56
2022-10-04T23:10:08.491Z,100317.69
2022-10-04T23:13:10.145Z,100318.16
2022-10-04T23:16:22.179Z,100326.06
2022-10-04T23:19:24.796Z,100316.84
2022-10-04T23:22:28.847Z,100321.03
2022-10-04T23:25:30.562Z,100318.41
2022-10-04T23:28:32.075Z,100324.19
2022-10-04T23:31:36.982Z,100319.06
2022-10-04T23:34:40.243Z,100313.38
2022-10-04T23:37:41.790Z,100314.91
2022-10-04T23:40:44.609Z,100313.47
2022-10-04T23:43:47.430Z,100306.56
2022-10-04T23:46:49.168Z,100307.91
2022-10-04T23:49:53.394Z,100304.56
2022-10-04T23:53:02.203Z,100309.59
2022-10-04T23:56:11.808Z,100304.75
2022-10-04T23:59:17.201Z,100301.47
